sensor_id;sensor_type;location;lat;lon;timestamp;temperature;humidity
79049;DHT22;68680;50.764;6.120;2023-10-19T00:00:16;14.90;99.90
79049;DHT22;68680;50.764;6.120;2023-10-19T00:02:42;15.00;99.90
79049;DHT22;68680;50.764;6.120;2023-10-19T00:05:09;15.00;99.90
79049;DHT22;68680;50.764;6.120;2023-10-19T00:07:35;15.00;99.90
79049;DHT22;68680;50.764;6.120;2023-10-19T00:10:01;15.10;99.90
79049;DHT22;68680;50.764;6.120;2023-10-19T00:12:27;15.10;99.90
79049;DHT22;68680;50.764;6.120;2023-10-19T00:14:52;15.10;99.90
79049;DHT22;68680;50.764;6.120;2023-10-19T00:17:18;15.20;99.90
79049;DHT22;68680;50.764;6.120;2023-10-19T00:19:44;15.10;99.90
79049;DHT22;68680;50.764;6.120;2023-10-19T00:22:11;15.10;99.90
79049;DHT22;68680;50.764;6.120;2023-10-19T00:24:37;15.10;99.90
79049;DHT22;68680;50.764;6.120;2023-10-19T00:27:03;15.00;99.90
79049;DHT22;68680;50.764;6.120;2023-10-19T00:29:28;14.90;99.90
79049;DHT22;68680;50.764;6.120;2023-10-19T00:31:54;14.90;99.90
79049;DHT22;68680;50.764;6.120;2023-10-19T00:34:20;14.90;99.90
79049;DHT22;68680;50.764;6.120;2023-10-19T00:36:46;14.90;99.90
79049;DHT22;68680;50.764;6.120;2023-10-19T00:39:13;14.80;99.90
79049;DHT22;68680;50.764;6.120;2023-10-19T00:41:38;14.80;99.90
79049;DHT22;68680;50.764;6.120;2023-10-19T00:44:05;14.70;99.90
79049;DHT22;68680;50.764;6.120;2023-10-19T00:46:31;14.70;99.90
79049;DHT22;68680;50.764;6.120;2023-10-19T00:48:59;14.70;99.90
79049;DHT22;68680;50.764;6.120;2023-10-19T00:51:29;14.80;99.90
79049;DHT22;68680;50.764;6.120;2023-10-19T00:54:00;14.80;99.90
79049;DHT22;68680;50.764;6.120;2023-10-19T00:56:31;14.80;99.90
79049;DHT22;68680;50.764;6.120;2023-10-19T00:58:56;14.80;99.90
79049;DHT22;68680;50.764;6.120;2023-10-19T01:01:26;14.80;99.90
79049;DHT22;68680;50.764;6.120;2023-10-19T01:03:53;14.80;99.90
79049;DHT22;68680;50.764;6.120;2023-10-19T01:06:19;14.70;99.90
79049;DHT22;68680;50.764;6.120;2023-10-19T01:08:45;14.70;99.90
79049;DHT22;68680;50.764;6.120;2023-10-19T01:11:14;14.80;99.90
79049;DHT22;68680;50.764;6.120;2023-10-19T01:13:41;14.80;99.90
79049;DHT22;68680;50.764;6.120;2023-10-19T01:16:12;14.80;99.90
79049;DHT22;68680;50.764;6.120;2023-10-19T01:18:38;14.80;99.90
79049;DHT22;68680;50.764;6.120;2023-10-19T01:21:04;14.80;99.90
79049;DHT22;68680;50.764;6.120;2023-10-19T01:23:31;14.80;99.90
79049;DHT22;68680;50.764;6.120;2023-10-19T01:25:58;14.80;99.90
79049;DHT22;68680;50.764;6.120;2023-10-19T01:28:25;14.80;99.90
79049;DHT22;68680;50.764;6.120;2023-10-19T01:30:52;14.80;99.90
79049;DHT22;68680;50.764;6.120;2023-10-19T01:33:18;14.80;99.90
79049;DHT22;68680;50.764;6.120;2023-10-19T01:35:44;14.90;99.90
79049;DHT22;68680;50.764;6.120;2023-10-19T01:38:10;14.90;99.90
79049;DHT22;68680;50.764;6.120;2023-10-19T01:40:37;14.90;99.90
79049;DHT22;68680;50.764;6.120;2023-10-19T01:43:03;14.90;99.90
79049;DHT22;68680;50.764;6.120;2023-10-19T01:45:30;14.90;99.90
79049;DHT22;68680;50.764;6.120;2023-10-19T01:47:56;15.00;99.90
79049;DHT22;68680;50.764;6.120;2023-10-19T01:50:21;15.00;99.90
79049;DHT22;68680;50.764;6.120;2023-10-19T01:52:50;14.90;99.90
79049;DHT22;68680;50.764;6.120;2023-10-19T01:55:16;14.90;99.90
79049;DHT22;68680;50.764;6.120;2023-10-19T01:57:43;14.90;99.90
79049;DHT22;68680;50.764;6.120;2023-10-19T02:00:09;14.90;99.90
79049;DHT22;68680;50.764;6.120;2023-10-19T02:02:35;14.90;99.90
79049;DHT22;68680;50.764;6.120;2023-10-19T02:05:01;14.90;99.90
79049;DHT22;68680;50.764;6.120;2023-10-19T02:07:27;14.90;99.90
79049;DHT22;68680;50.764;6.120;2023-10-19T02:09:53;14.80;99.90
79049;DHT22;68680;50.764;6.120;2023-10-19T02:12:19;14.80;99.90
79049;DHT22;68680;50.764;6.120;2023-10-19T02:14:46;14.90;99.90
79049;DHT22;68680;50.764;6.120;2023-10-19T02:17:12;14.90;99.90
79049;DHT22;68680;50.764;6.120;2023-10-19T02:19:37;14.90;99.90
79049;DHT22;68680;50.764;6.120;2023-10-19T02:22:03;14.90;99.90
79049;DHT22;68680;50.764;6.120;2023-10-19T02:24:29;14.90;99.90
79049;DHT22;68680;50.764;6.120;2023-10-19T02:26:56;15.00;99.90
79049;DHT22;68680;50.764;6.120;2023-10-19T02:29:23;15.00;99.90
79049;DHT22;68680;50.764;6.120;2023-10-19T02:31:50;14.90;99.90
79049;DHT22;68680;50.764;6.120;2023-10-19T02:34:16;14.90;99.90
79049;DHT22;68680;50.764;6.120;2023-10-19T02:36:43;14.90;99.90
79049;DHT22;68680;50.764;6.120;2023-10-19T02:39:11;14.90;99.90
79049;DHT22;68680;50.764;6.120;2023-10-19T02:41:39;14.80;99.90
79049;DHT22;68680;50.764;6.120;2023-10-19T02:44:08;14.80;99.90
79049;DHT22;68680;50.764;6.120;2023-10-19T02:46:35;14.70;99.90
79049;DHT22;68680;50.764;6.120;2023-10-19T02:49:03;14.70;99.90
79049;DHT22;68680;50.764;6.120;2023-10-19T02:51:29;14.60;99.90
79049;DHT22;68680;50.764;6.120;2023-10-19T02:53:56;14.50;99.90
79049;DHT22;68680;50.764;6.120;2023-10-19T02:56:21;14.50;99.90
79049;DHT22;68680;50.764;6.120;2023-10-19T02:58:47;14.50;99.90
79049;DHT22;68680;50.764;6.120;2023-10-19T03:01:14;14.50;99.90
79049;DHT22;68680;50.764;6.120;2023-10-19T03:03:41;14.50;99.90
79049;DHT22;68680;50.764;6.120;2023-10-19T03:06:08;14.50;99.90
79049;DHT22;68680;50.764;6.120;2023-10-19T03:08:33;14.40;99.90
79049;DHT22;68680;50.764;6.120;2023-10-19T03:10:59;14.50;99.90
79049;DHT22;68680;50.764;6.120;2023-10-19T03:13:25;14.50;99.90
79049;DHT22;68680;50.764;6.120;2023-10-19T03:15:51;14.60;99.90
79049;DHT22;68680;50.764;6.120;2023-10-19T03:18:16;14.60;99.90
79049;DHT22;68680;50.764;6.120;2023-10-19T03:20:42;14.60;99.90
79049;DHT22;68680;50.764;6.120;2023-10-19T03:23:09;14.60;99.90
79049;DHT22;68680;50.764;6.120;2023-10-19T03:25:35;14.60;99.90
79049;DHT22;68680;50.764;6.120;2023-10-19T03:28:01;14.60;99.90
79049;DHT22;68680;50.764;6.120;2023-10-19T03:30:27;14.60;99.90
79049;DHT22;68680;50.764;6.120;2023-10-19T03:32:52;14.50;99.90
79049;DHT22;68680;50.764;6.120;2023-10-19T03:35:18;14.50;99.90
79049;DHT22;68680;50.764;6.120;2023-10-19T03:37:44;14.50;99.90
79049;DHT22;68680;50.764;6.120;2023-10-19T03:40:11;14.40;99.90
79049;DHT22;68680;50.764;6.120;2023-10-19T03:42:37;14.40;99.90
79049;DHT22;68680;50.764;6.120;2023-10-19T03:45:04;14.40;99.90
79049;DHT22;68680;50.764;6.120;2023-10-19T03:47:30;14.50;99.90
79049;DHT22;68680;50.764;6.120;2023-10-19T03:49:56;14.50;99.90
79049;DHT22;68680;50.764;6.120;2023-10-19T03:52:22;14.50;99.90
79049;DHT22;68680;50.764;6.120;2023-10-19T03:54:48;14.50;99.90
79049;DHT22;68680;50.764;6.120;2023-10-19T03:57:16;14.50;99.90
79049;DHT22;68680;50.764;6.120;2023-10-19T03:59:43;14.50;99.90
79049;DHT22;68680;50.764;6.120;2023-10-19T04:02:09;14.50;99.90
79049;DHT22;68680;50.764;6.120;2023-10-19T04:04:35;14.50;99.90
79049;DHT22;68680;50.764;6.120;2023-10-19T04:07:00;14.50;99.90
79049;DHT22;68680;50.764;6.120;2023-10-19T04:09:26;14.50;99.90
79049;DHT22;68680;50.764;6.120;2023-10-19T04:11:52;14.50;99.90
79049;DHT22;68680;50.764;6.120;2023-10-19T04:14:19;14.50;99.90
79049;DHT22;68680;50.764;6.120;2023-10-19T04:16:45;14.40;99.90
79049;DHT22;68680;50.764;6.120;2023-10-19T04:19:11;14.40;99.90
79049;DHT22;68680;50.764;6.120;2023-10-19T04:21:37;14.40;99.90
79049;DHT22;68680;50.764;6.120;2023-10-19T04:24:03;14.40;99.90
79049;DHT22;68680;50.764;6.120;2023-10-19T04:26:29;14.40;99.90
79049;DHT22;68680;50.764;6.120;2023-10-19T04:28:55;14.40;99.90
79049;DHT22;68680;50.764;6.120;2023-10-19T04:31:22;14.30;99.90
79049;DHT22;68680;50.764;6.120;2023-10-19T04:33:48;14.30;99.90
79049;DHT22;68680;50.764;6.120;2023-10-19T04:36:14;14.30;99.90
79049;DHT22;68680;50.764;6.120;2023-10-19T04:38:41;14.30;99.90
79049;DHT22;68680;50.764;6.120;2023-10-19T04:41:08;14.30;99.90
79049;DHT22;68680;50.764;6.120;2023-10-19T04:43:34;14.20;99.90
79049;DHT22;68680;50.764;6.120;2023-10-19T04:46:03;14.20;99.90
79049;DHT22;68680;50.764;6.120;2023-10-19T04:48:31;14.20;99.90
79049;DHT22;68680;50.764;6.120;2023-10-19T04:50:57;14.30;99.90
79049;DHT22;68680;50.764;6.120;2023-10-19T04:53:23;14.20;99.90
79049;DHT22;68680;50.764;6.120;2023-10-19T04:55:48;14.20;99.90
79049;DHT22;68680;50.764;6.120;2023-10-19T04:58:14;14.20;99.90
79049;DHT22;68680;50.764;6.120;2023-10-19T05:00:40;14.20;99.90
79049;DHT22;68680;50.764;6.120;2023-10-19T05:03:06;14.20;99.90
79049;DHT22;68680;50.764;6.120;2023-10-19T05:05:33;14.30;99.90
79049;DHT22;68680;50.764;6.120;2023-10-19T05:07:58;14.30;99.90
79049;DHT22;68680;50.764;6.120;2023-10-19T05:10:24;14.30;99.90
79049;DHT22;68680;50.764;6.120;2023-10-19T05:12:50;14.30;99.90
79049;DHT22;68680;50.764;6.120;2023-10-19T05:15:16;14.30;99.90
79049;DHT22;68680;50.764;6.120;2023-10-19T05:17:41;14.30;99.90
79049;DHT22;68680;50.764;6.120;2023-10-19T05:20:08;14.30;99.90
79049;DHT22;68680;50.764;6.120;2023-10-19T05:22:36;14.40;99.90
79049;DHT22;68680;50.764;6.120;2023-10-19T05:25:02;14.50;99.90
79049;DHT22;68680;50.764;6.120;2023-10-19T05:27:28;14.60;99.90
79049;DHT22;68680;50.764;6.120;2023-10-19T05:29:54;14.70;99.90
79049;DHT22;68680;50.764;6.120;2023-10-19T05:32:20;14.70;99.90
79049;DHT22;68680;50.764;6.120;2023-10-19T05:34:46;14.60;99.90
79049;DHT22;68680;50.764;6.120;2023-10-19T05:37:11;14.60;99.90
79049;DHT22;68680;50.764;6.120;2023-10-19T05:39:38;14.60;99.90
79049;DHT22;68680;50.764;6.120;2023-10-19T05:42:04;14.60;99.90
79049;DHT22;68680;50.764;6.120;2023-10-19T05:44:30;14.60;99.90
79049;DHT22;68680;50.764;6.120;2023-10-19T05:46:56;14.60;99.90
79049;DHT22;68680;50.764;6.120;2023-10-19T05:49:22;14.60;99.90
79049;DHT22;68680;50.764;6.120;2023-10-19T05:51:48;14.60;99.90
79049;DHT22;68680;50.764;6.120;2023-10-19T05:54:14;14.50;99.90
79049;DHT22;68680;50.764;6.120;2023-10-19T05:56:41;14.50;99.90
79049;DHT22;68680;50.764;6.120;2023-10-19T05:59:07;14.50;99.90
79049;DHT22;68680;50.764;6.120;2023-10-19T06:01:32;14.50;99.90
79049;DHT22;68680;50.764;6.120;2023-10-19T06:03:58;14.50;99.90
79049;DHT22;68680;50.764;6.120;2023-10-19T06:06:24;14.40;99.90
79049;DHT22;68680;50.764;6.120;2023-10-19T06:08:50;14.40;99.90
79049;DHT22;68680;50.764;6.120;2023-10-19T06:11:15;14.40;99.90
79049;DHT22;68680;50.764;6.120;2023-10-19T06:13:42;14.40;99.90
79049;DHT22;68680;50.764;6.120;2023-10-19T06:16:08;14.40;99.90
79049;DHT22;68680;50.764;6.120;2023-10-19T06:18:34;14.40;99.90
79049;DHT22;68680;50.764;6.120;2023-10-19T06:21:00;14.40;99.90
79049;DHT22;68680;50.764;6.120;2023-10-19T06:23:25;14.30;99.90
79049;DHT22;68680;50.764;6.120;2023-10-19T06:25:51;14.30;99.90
79049;DHT22;68680;50.764;6.120;2023-10-19T06:28:17;14.30;99.90
79049;DHT22;68680;50.764;6.120;2023-10-19T06:30:44;14.30;99.90
79049;DHT22;68680;50.764;6.120;2023-10-19T06:33:10;14.30;99.90
79049;DHT22;68680;50.764;6.120;2023-10-19T06:35:36;14.30;99.90
79049;DHT22;68680;50.764;6.120;2023-10-19T06:38:02;14.30;99.90
79049;DHT22;68680;50.764;6.120;2023-10-19T06:40:28;14.30;99.90
79049;DHT22;68680;50.764;6.120;2023-10-19T06:42:55;14.30;99.90
79049;DHT22;68680;50.764;6.120;2023-10-19T06:45:21;14.30;99.90
79049;DHT22;68680;50.764;6.120;2023-10-19T06:47:49;14.30;99.90
79049;DHT22;68680;50.764;6.120;2023-10-19T06:50:17;14.40;99.90
79049;DHT22;68680;50.764;6.120;2023-10-19T06:52:45;14.30;99.90
79049;DHT22;68680;50.764;6.120;2023-10-19T06:55:11;14.30;99.90
79049;DHT22;68680;50.764;6.120;2023-10-19T06:57:37;14.30;99.90
79049;DHT22;68680;50.764;6.120;2023-10-19T07:00:04;14.40;99.90
79049;DHT22;68680;50.764;6.120;2023-10-19T07:02:30;14.30;99.90
79049;DHT22;68680;50.764;6.120;2023-10-19T07:04:57;14.40;99.90
79049;DHT22;68680;50.764;6.120;2023-10-19T07:07:23;14.40;99.90
79049;DHT22;68680;50.764;6.120;2023-10-19T07:09:48;14.50;99.90
79049;DHT22;68680;50.764;6.120;2023-10-19T07:12:16;14.50;99.90
79049;DHT22;68680;50.764;6.120;2023-10-19T07:14:42;14.60;99.90
79049;DHT22;68680;50.764;6.120;2023-10-19T07:17:07;14.60;99.90
79049;DHT22;68680;50.764;6.120;2023-10-19T07:19:33;14.70;99.90
79049;DHT22;68680;50.764;6.120;2023-10-19T07:22:00;14.70;99.90
79049;DHT22;68680;50.764;6.120;2023-10-19T07:24:26;14.80;99.90
79049;DHT22;68680;50.764;6.120;2023-10-19T07:26:52;14.80;99.90
79049;DHT22;68680;50.764;6.120;2023-10-19T07:29:17;14.90;99.90
79049;DHT22;68680;50.764;6.120;2023-10-19T07:31:43;14.90;99.90
79049;DHT22;68680;50.764;6.120;2023-10-19T07:34:09;14.90;99.90
79049;DHT22;68680;50.764;6.120;2023-10-19T07:36:35;14.90;99.90
79049;DHT22;68680;50.764;6.120;2023-10-19T07:39:02;14.90;99.90
79049;DHT22;68680;50.764;6.120;2023-10-19T07:41:27;15.00;99.90
79049;DHT22;68680;50.764;6.120;2023-10-19T07:43:53;15.00;99.90
79049;DHT22;68680;50.764;6.120;2023-10-19T07:46:19;15.00;99.90
79049;DHT22;68680;50.764;6.120;2023-10-19T07:48:45;15.00;99.90
79049;DHT22;68680;50.764;6.120;2023-10-19T07:51:10;15.00;99.90
79049;DHT22;68680;50.764;6.120;2023-10-19T07:53:36;15.10;99.90
79049;DHT22;68680;50.764;6.120;2023-10-19T07:56:03;15.10;99.90
79049;DHT22;68680;50.764;6.120;2023-10-19T07:58:29;15.20;99.90
79049;DHT22;68680;50.764;6.120;2023-10-19T08:00:55;15.30;99.90
79049;DHT22;68680;50.764;6.120;2023-10-19T08:03:21;15.40;99.90
79049;DHT22;68680;50.764;6.120;2023-10-19T08:05:47;15.50;99.90
79049;DHT22;68680;50.764;6.120;2023-10-19T08:08:12;15.60;99.90
79049;DHT22;68680;50.764;6.120;2023-10-19T08:10:38;15.70;99.90
79049;DHT22;68680;50.764;6.120;2023-10-19T08:13:05;15.70;99.90
79049;DHT22;68680;50.764;6.120;2023-10-19T08:15:31;15.80;99.90
79049;DHT22;68680;50.764;6.120;2023-10-19T08:17:57;15.80;99.90
79049;DHT22;68680;50.764;6.120;2023-10-19T08:20:23;15.80;99.90
79049;DHT22;68680;50.764;6.120;2023-10-19T08:22:49;15.90;99.90
79049;DHT22;68680;50.764;6.120;2023-10-19T08:25:16;16.00;99.90
79049;DHT22;68680;50.764;6.120;2023-10-19T08:27:43;16.00;99.90
79049;DHT22;68680;50.764;6.120;2023-10-19T08:30:11;16.10;99.90
79049;DHT22;68680;50.764;6.120;2023-10-19T08:32:37;16.20;99.90
79049;DHT22;68680;50.764;6.120;2023-10-19T08:35:03;16.20;99.90
79049;DHT22;68680;50.764;6.120;2023-10-19T08:37:29;16.30;99.90
79049;DHT22;68680;50.764;6.120;2023-10-19T08:39:55;16.30;99.90
79049;DHT22;68680;50.764;6.120;2023-10-19T08:42:20;16.30;99.90
79049;DHT22;68680;50.764;6.120;2023-10-19T08:44:46;16.30;99.90
79049;DHT22;68680;50.764;6.120;2023-10-19T08:47:14;16.30;99.90
79049;DHT22;68680;50.764;6.120;2023-10-19T08:49:39;16.40;99.90
79049;DHT22;68680;50.764;6.120;2023-10-19T08:52:07;16.50;99.90
79049;DHT22;68680;50.764;6.120;2023-10-19T08:54:34;16.50;99.90
79049;DHT22;68680;50.764;6.120;2023-10-19T08:57:00;16.40;99.90
79049;DHT22;68680;50.764;6.120;2023-10-19T08:59:26;16.40;99.90
79049;DHT22;68680;50.764;6.120;2023-10-19T09:02:00;16.30;99.90
79049;DHT22;68680;50.764;6.120;2023-10-19T09:04:27;16.40;99.90
79049;DHT22;68680;50.764;6.120;2023-10-19T09:06:53;16.40;99.90
79049;DHT22;68680;50.764;6.120;2023-10-19T09:09:19;16.40;99.90
79049;DHT22;68680;50.764;6.120;2023-10-19T09:11:45;16.40;99.90
79049;DHT22;68680;50.764;6.120;2023-10-19T09:14:12;16.50;99.90
79049;DHT22;68680;50.764;6.120;2023-10-19T09:16:38;16.60;99.90
79049;DHT22;68680;50.764;6.120;2023-10-19T09:19:19;16.60;99.90
79049;DHT22;68680;50.764;6.120;2023-10-19T09:21:46;16.70;99.90
79049;DHT22;68680;50.764;6.120;2023-10-19T09:24:12;16.80;99.90
79049;DHT22;68680;50.764;6.120;2023-10-19T09:26:37;16.90;99.90
79049;DHT22;68680;50.764;6.120;2023-10-19T09:29:03;17.00;99.90
79049;DHT22;68680;50.764;6.120;2023-10-19T09:31:29;17.00;99.90
79049;DHT22;68680;50.764;6.120;2023-10-19T09:33:55;17.10;99.90
79049;DHT22;68680;50.764;6.120;2023-10-19T09:36:21;17.00;99.90
79049;DHT22;68680;50.764;6.120;2023-10-19T09:38:51;17.10;99.90
79049;DHT22;68680;50.764;6.120;2023-10-19T09:41:18;17.10;99.90
79049;DHT22;68680;50.764;6.120;2023-10-19T09:43:46;17.10;99.90
79049;DHT22;68680;50.764;6.120;2023-10-19T09:46:21;17.10;99.90
79049;DHT22;68680;50.764;6.120;2023-10-19T09:48:49;17.30;99.90
79049;DHT22;68680;50.764;6.120;2023-10-19T09:51:16;17.40;99.90
79049;DHT22;68680;50.764;6.120;2023-10-19T09:53:47;17.40;99.90
79049;DHT22;68680;50.764;6.120;2023-10-19T09:56:20;17.50;99.90
79049;DHT22;68680;50.764;6.120;2023-10-19T09:58:52;17.60;99.90
79049;DHT22;68680;50.764;6.120;2023-10-19T10:01:20;17.70;99.90
79049;DHT22;68680;50.764;6.120;2023-10-19T10:03:47;17.70;99.90
79049;DHT22;68680;50.764;6.120;2023-10-19T10:06:15;17.70;99.90
79049;DHT22;68680;50.764;6.120;2023-10-19T10:08:43;17.70;99.90
79049;DHT22;68680;50.764;6.120;2023-10-19T10:11:22;17.70;99.90
79049;DHT22;68680;50.764;6.120;2023-10-19T10:13:49;17.80;99.90
79049;DHT22;68680;50.764;6.120;2023-10-19T10:16:17;17.70;99.90
79049;DHT22;68680;50.764;6.120;2023-10-19T10:18:46;17.70;99.90
79049;DHT22;68680;50.764;6.120;2023-10-19T10:21:15;17.70;99.90
79049;DHT22;68680;50.764;6.120;2023-10-19T10:23:42;17.80;99.90
79049;DHT22;68680;50.764;6.120;2023-10-19T10:26:10;17.90;99.90
79049;DHT22;68680;50.764;6.120;2023-10-19T10:28:39;18.00;99.90
79049;DHT22;68680;50.764;6.120;2023-10-19T10:31:09;17.90;99.90
79049;DHT22;68680;50.764;6.120;2023-10-19T10:33:40;17.90;99.90
79049;DHT22;68680;50.764;6.120;2023-10-19T10:36:08;18.00;99.90
79049;DHT22;68680;50.764;6.120;2023-10-19T10:38:34;18.00;99.90
79049;DHT22;68680;50.764;6.120;2023-10-19T10:41:01;18.00;99.90
79049;DHT22;68680;50.764;6.120;2023-10-19T10:43:28;18.10;99.90
79049;DHT22;68680;50.764;6.120;2023-10-19T10:46:04;18.00;99.90
79049;DHT22;68680;50.764;6.120;2023-10-19T10:48:30;18.10;99.90
79049;DHT22;68680;50.764;6.120;2023-10-19T10:50:56;18.10;99.90
79049;DHT22;68680;50.764;6.120;2023-10-19T10:53:23;18.00;99.90
79049;DHT22;68680;50.764;6.120;2023-10-19T10:55:49;18.00;99.90
79049;DHT22;68680;50.764;6.120;2023-10-19T10:58:15;17.90;99.90
79049;DHT22;68680;50.764;6.120;2023-10-19T11:00:42;17.90;99.90
79049;DHT22;68680;50.764;6.120;2023-10-19T11:03:10;18.00;99.90
79049;DHT22;68680;50.764;6.120;2023-10-19T11:05:36;18.00;99.90
79049;DHT22;68680;50.764;6.120;2023-10-19T11:08:04;18.00;99.90
79049;DHT22;68680;50.764;6.120;2023-10-19T11:10:32;18.00;99.90
79049;DHT22;68680;50.764;6.120;2023-10-19T11:13:03;17.90;99.90
79049;DHT22;68680;50.764;6.120;2023-10-19T11:15:29;17.90;99.90
79049;DHT22;68680;50.764;6.120;2023-10-19T11:17:55;17.90;99.90
79049;DHT22;68680;50.764;6.120;2023-10-19T11:20:23;17.80;99.90
79049;DHT22;68680;50.764;6.120;2023-10-19T11:22:51;17.80;99.90
79049;DHT22;68680;50.764;6.120;2023-10-19T11:25:19;17.90;99.90
79049;DHT22;68680;50.764;6.120;2023-10-19T11:27:46;17.80;99.90
79049;DHT22;68680;50.764;6.120;2023-10-19T11:30:12;17.80;99.90
79049;DHT22;68680;50.764;6.120;2023-10-19T11:32:39;17.80;99.90
79049;DHT22;68680;50.764;6.120;2023-10-19T11:35:05;17.70;99.90
79049;DHT22;68680;50.764;6.120;2023-10-19T11:37:47;17.70;99.90
79049;DHT22;68680;50.764;6.120;2023-10-19T11:40:14;17.60;99.90
79049;DHT22;68680;50.764;6.120;2023-10-19T11:42:40;17.60;99.90
79049;DHT22;68680;50.764;6.120;2023-10-19T11:45:07;17.50;99.90
79049;DHT22;68680;50.764;6.120;2023-10-19T11:47:33;17.50;99.90
79049;DHT22;68680;50.764;6.120;2023-10-19T11:49:59;17.50;99.90
79049;DHT22;68680;50.764;6.120;2023-10-19T11:52:24;17.40;99.90
79049;DHT22;68680;50.764;6.120;2023-10-19T11:54:51;17.40;99.90
79049;DHT22;68680;50.764;6.120;2023-10-19T11:57:17;17.40;99.90
79049;DHT22;68680;50.764;6.120;2023-10-19T11:59:43;17.40;99.90
79049;DHT22;68680;50.764;6.120;2023-10-19T12:02:09;17.40;99.90
79049;DHT22;68680;50.764;6.120;2023-10-19T12:04:34;17.40;99.90
79049;DHT22;68680;50.764;6.120;2023-10-19T12:07:00;17.30;99.90
79049;DHT22;68680;50.764;6.120;2023-10-19T12:09:26;17.30;99.90
79049;DHT22;68680;50.764;6.120;2023-10-19T12:11:53;17.30;99.90
79049;DHT22;68680;50.764;6.120;2023-10-19T12:14:19;17.30;99.90
79049;DHT22;68680;50.764;6.120;2023-10-19T12:16:45;17.30;99.90
79049;DHT22;68680;50.764;6.120;2023-10-19T12:19:10;17.20;99.90
79049;DHT22;68680;50.764;6.120;2023-10-19T12:21:36;17.20;99.90
79049;DHT22;68680;50.764;6.120;2023-10-19T12:24:02;17.20;99.90
79049;DHT22;68680;50.764;6.120;2023-10-19T12:26:28;17.10;99.90
79049;DHT22;68680;50.764;6.120;2023-10-19T12:28:55;17.10;99.90
79049;DHT22;68680;50.764;6.120;2023-10-19T12:31:21;17.00;99.90
79049;DHT22;68680;50.764;6.120;2023-10-19T12:33:47;16.70;99.90
79049;DHT22;68680;50.764;6.120;2023-10-19T12:36:13;16.40;99.90
79049;DHT22;68680;50.764;6.120;2023-10-19T12:38:39;16.20;99.90
79049;DHT22;68680;50.764;6.120;2023-10-19T12:41:04;16.00;99.90
79049;DHT22;68680;50.764;6.120;2023-10-19T12:43:31;15.80;99.90
79049;DHT22;68680;50.764;6.120;2023-10-19T12:45:58;15.50;99.90
79049;DHT22;68680;50.764;6.120;2023-10-19T12:48:23;15.40;99.90
79049;DHT22;68680;50.764;6.120;2023-10-19T12:50:49;15.30;99.90
79049;DHT22;68680;50.764;6.120;2023-10-19T12:53:15;15.30;99.90
79049;DHT22;68680;50.764;6.120;2023-10-19T12:55:41;15.20;99.90
79049;DHT22;68680;50.764;6.120;2023-10-19T12:58:06;15.10;99.90
79049;DHT22;68680;50.764;6.120;2023-10-19T13:00:32;15.10;99.90
79049;DHT22;68680;50.764;6.120;2023-10-19T13:03:00;15.10;99.90
79049;DHT22;68680;50.764;6.120;2023-10-19T13:05:26;15.10;99.90
79049;DHT22;68680;50.764;6.120;2023-10-19T13:07:53;15.10;99.90
79049;DHT22;68680;50.764;6.120;2023-10-19T13:10:19;15.20;99.90
79049;DHT22;68680;50.764;6.120;2023-10-19T13:12:45;15.10;99.90
79049;DHT22;68680;50.764;6.120;2023-10-19T13:15:11;15.20;99.90
79049;DHT22;68680;50.764;6.120;2023-10-19T13:17:36;15.10;99.90
79049;DHT22;68680;50.764;6.120;2023-10-19T13:20:05;15.20;99.90
79049;DHT22;68680;50.764;6.120;2023-10-19T13:22:31;15.20;99.90
79049;DHT22;68680;50.764;6.120;2023-10-19T13:24:57;15.20;99.90
79049;DHT22;68680;50.764;6.120;2023-10-19T13:27:23;15.30;99.90
79049;DHT22;68680;50.764;6.120;2023-10-19T13:29:48;15.30;99.90
79049;DHT22;68680;50.764;6.120;2023-10-19T13:32:14;15.40;99.90
79049;DHT22;68680;50.764;6.120;2023-10-19T13:34:40;15.40;99.90
79049;DHT22;68680;50.764;6.120;2023-10-19T13:37:07;15.40;99.90
79049;DHT22;68680;50.764;6.120;2023-10-19T13:39:33;15.50;99.90
79049;DHT22;68680;50.764;6.120;2023-10-19T13:41:58;15.60;99.90
79049;DHT22;68680;50.764;6.120;2023-10-19T13:44:24;15.60;99.90
79049;DHT22;68680;50.764;6.120;2023-10-19T13:46:52;15.70;99.90
79049;DHT22;68680;50.764;6.120;2023-10-19T13:49:18;15.80;99.90
79049;DHT22;68680;50.764;6.120;2023-10-19T13:51:44;15.90;99.90
79049;DHT22;68680;50.764;6.120;2023-10-19T13:54:11;15.90;99.90
79049;DHT22;68680;50.764;6.120;2023-10-19T13:56:37;16.00;99.90
79049;DHT22;68680;50.764;6.120;2023-10-19T13:59:03;16.10;99.90
79049;DHT22;68680;50.764;6.120;2023-10-19T14:01:29;16.10;99.90
79049;DHT22;68680;50.764;6.120;2023-10-19T14:03:55;16.20;99.90
79049;DHT22;68680;50.764;6.120;2023-10-19T14:06:20;16.20;99.90
79049;DHT22;68680;50.764;6.120;2023-10-19T14:08:46;16.20;99.90
79049;DHT22;68680;50.764;6.120;2023-10-19T14:11:13;16.20;99.90
79049;DHT22;68680;50.764;6.120;2023-10-19T14:13:39;16.20;99.90
79049;DHT22;68680;50.764;6.120;2023-10-19T14:16:06;16.20;99.90
79049;DHT22;68680;50.764;6.120;2023-10-19T14:18:32;16.30;99.90
79049;DHT22;68680;50.764;6.120;2023-10-19T14:20:58;16.20;99.90
79049;DHT22;68680;50.764;6.120;2023-10-19T14:23:23;16.30;99.90
79049;DHT22;68680;50.764;6.120;2023-10-19T14:25:49;16.30;99.90
79049;DHT22;68680;50.764;6.120;2023-10-19T14:28:16;16.30;99.90
79049;DHT22;68680;50.764;6.120;2023-10-19T14:30:42;16.40;99.90
79049;DHT22;68680;50.764;6.120;2023-10-19T14:33:08;16.40;99.90
79049;DHT22;68680;50.764;6.120;2023-10-19T14:35:34;16.40;99.90
79049;DHT22;68680;50.764;6.120;2023-10-19T14:37:59;16.50;99.90
79049;DHT22;68680;50.764;6.120;2023-10-19T14:40:27;16.60;99.90
79049;DHT22;68680;50.764;6.120;2023-10-19T14:42:53;16.70;99.90
79049;DHT22;68680;50.764;6.120;2023-10-19T14:45:23;16.70;99.90
79049;DHT22;68680;50.764;6.120;2023-10-19T14:47:50;16.70;99.90
79049;DHT22;68680;50.764;6.120;2023-10-19T14:50:16;16.80;99.90
79049;DHT22;68680;50.764;6.120;2023-10-19T14:52:43;16.80;99.90
79049;DHT22;68680;50.764;6.120;2023-10-19T14:55:11;16.80;99.90
79049;DHT22;68680;50.764;6.120;2023-10-19T14:57:39;16.80;99.90
79049;DHT22;68680;50.764;6.120;2023-10-19T15:00:08;16.80;99.90
79049;DHT22;68680;50.764;6.120;2023-10-19T15:02:36;16.80;99.90
79049;DHT22;68680;50.764;6.120;2023-10-19T15:05:02;16.80;99.90
79049;DHT22;68680;50.764;6.120;2023-10-19T15:07:28;16.80;99.90
79049;DHT22;68680;50.764;6.120;2023-10-19T15:09:53;16.90;99.90
79049;DHT22;68680;50.764;6.120;2023-10-19T15:12:20;16.90;99.90
79049;DHT22;68680;50.764;6.120;2023-10-19T15:14:45;16.90;99.90
79049;DHT22;68680;50.764;6.120;2023-10-19T15:17:11;16.80;99.90
79049;DHT22;68680;50.764;6.120;2023-10-19T15:19:38;16.70;99.90
79049;DHT22;68680;50.764;6.120;2023-10-19T15:22:04;16.60;99.90
79049;DHT22;68680;50.764;6.120;2023-10-19T15:24:30;16.60;99.90